createdAt,value
2022-10-08T00:00:51.706Z,98009.13
2022-10-08T00:03:20.161Z,98007.13
2022-10-08T00:05:59.628Z,98008.38
2022-10-08T00:08:28.886Z,98003.63
2022-10-08T00:11:00.904Z,98012.72
2022-10-08T00:13:40.981Z,98004.00
2022-10-08T00:16:23.639Z,98005.44
2022-10-08T00:18:51.409Z,98003.63
2022-10-08T00:21:21.497Z,98001.44
2022-10-08T00:23:50.174Z,98002.00
2022-10-08T00:26:19.101Z,98005.84
2022-10-08T00:28:47.161Z,98001.44
2022-10-08T00:31:35.603Z,98001.09
2022-10-08T00:34:05.862Z,97996.53
2022-10-08T00:36:34.058Z,97991.56
2022-10-08T00:39:04.066Z,97991.94
2022-10-08T00:41:33.286Z,97985.34
2022-10-08T00:44:04.710Z,97984.06
2022-10-08T00:46:47.089Z,97988.97
2022-10-08T00:49:17.891Z,97977.63
2022-10-08T00:51:49.766Z,97989.50
2022-10-08T00:54:18.698Z,97987.47
2022-10-08T00:56:49.060Z,97982.56
2022-10-08T00:59:16.890Z,97988.59
2022-10-08T01:01:44.291Z,97993.16
2022-10-08T01:04:12.243Z,97987.88
2022-10-08T01:06:48.956Z,97988.81
2022-10-08T01:09:19.750Z,97992.63
2022-10-08T01:12:08.130Z,97987.47
2022-10-08T01:14:56.498Z,97991.84
2022-10-08T01:17:44.349Z,97986.19
2022-10-08T01:20:51.875Z,97984.19
2022-10-08T01:24:10.700Z,97977.63
2022-10-08T01:27:00.886Z,97969.75
2022-10-08T01:29:39.878Z,97971.38
2022-10-08T01:32:17.269Z,97966.63
2022-10-08T01:34:50.931Z,97969.94
2022-10-08T01:37:26.654Z,97966.56
2022-10-08T01:39:56.640Z,97963.84
2022-10-08T01:42:26.159Z,97963.44
2022-10-08T01:45:00.330Z,97967.09
2022-10-08T01:47:28.972Z,97968.59
2022-10-08T01:50:31.534Z,97974.97
2022-10-08T01:53:04.142Z,97965.47
2022-10-08T01:55:40.453Z,97967.28
2022-10-08T01:58:13.872Z,97967.09
2022-10-08T02:00:42.171Z,97975.75
2022-10-08T02:03:13.349Z,97960.81
2022-10-08T02:05:48.687Z,97963.94
2022-10-08T02:08:15.267Z,97961.38
2022-10-08T02:10:43.097Z,97957.56
2022-10-08T02:13:10.918Z,97966.34
2022-10-08T02:15:47.874Z,97952.47
2022-10-08T02:18:20.589Z,97951.22
2022-10-08T02:20:58.861Z,97946.81
2022-10-08T02:23:41.469Z,97960.16
2022-10-08T02:26:13.860Z,97947.91
2022-10-08T02:29:15.066Z,97950.31
2022-10-08T02:31:49.914Z,97950.50
2022-10-08T02:34:33.191Z,97948.88
2022-10-08T02:37:12.195Z,97959.81
2022-10-08T02:39:43.995Z,97962.44
2022-10-08T02:42:15.427Z,97966.84
2022-10-08T02:45:07.491Z,97966.47
2022-10-08T02:47:38.544Z,97972.81
2022-10-08T02:50:11.921Z,97968.84
2022-10-08T02:52:43.494Z,97965.72
2022-10-08T02:55:41.405Z,97971.94
2022-10-08T02:58:10.785Z,97968.97
2022-10-08T03:00:42.931Z,97965.28
2022-10-08T03:03:13.598Z,97968.03
2022-10-08T03:05:42.032Z,97963.09
2022-10-08T03:08:11.717Z,97967.69
2022-10-08T03:10:40.528Z,97972.59
2022-10-08T03:13:09.207Z,97973.84
2022-10-08T03:15:37.185Z,97969.66
2022-10-08T03:18:08.785Z,97977.31
2022-10-08T03:20:42.170Z,97976.34
2022-10-08T03:23:08.911Z,97964.84
2022-10-08T03:25:35.505Z,97967.75
2022-10-08T03:28:02.342Z,97971.97
2022-10-08T03:30:29.201Z,97971.06
2022-10-08T03:32:55.742Z,97965.78
2022-10-08T03:35:22.317Z,97976.91
2022-10-08T03:37:48.904Z,97970.34
2022-10-08T03:40:15.626Z,97973.47
2022-10-08T03:42:42.430Z,97977.81
2022-10-08T03:45:09.477Z,97976.91
2022-10-08T03:47:36.053Z,97978.53
2022-10-08T03:50:02.798Z,97973.63
2022-10-08T03:52:30.690Z,97977.59
2022-10-08T03:54:57.323Z,97985.25
2022-10-08T03:57:23.977Z,97988.53
2022-10-08T03:59:50.530Z,97989.06
2022-10-08T04:02:17.098Z,97995.44
2022-10-08T04:04:43.742Z,97992.91
2022-10-08T04:07:10.350Z,97994.19
2022-10-08T04:09:37.036Z,97992.91
2022-10-08T04:12:03.850Z,97999.09
2022-10-08T04:14:30.406Z,97998.78
2022-10-08T04:16:56.965Z,97998.03
2022-10-08T04:19:23.780Z,97998.78
2022-10-08T04:21:50.348Z,97992.72
2022-10-08T04:24:16.909Z,97993.25
2022-10-08T04:26:43.523Z,97995.81
2022-10-08T04:29:12.516Z,97993.63
2022-10-08T04:31:40.330Z,97993.63
2022-10-08T04:34:06.995Z,97994.59
2022-10-08T04:36:33.590Z,97998.78
2022-10-08T04:39:00.254Z,97994.59
2022-10-08T04:41:27.650Z,97993.69
2022-10-08T04:43:58.344Z,97993.69
2022-10-08T04:46:25.011Z,97987.53
2022-10-08T04:48:54.010Z,97991.75
2022-10-08T04:51:23.331Z,97992.88
2022-10-08T04:53:51.044Z,97994.72
2022-10-08T04:56:23.610Z,97998.91
2022-10-08T04:58:50.302Z,97999.63
2022-10-08T05:01:19.973Z,98002.41
2022-10-08T05:03:49.342Z,97994.22
2022-10-08T05:06:17.825Z,98002.75
2022-10-08T05:08:45.201Z,98004.94
2022-10-08T05:11:12.794Z,98009.69
2022-10-08T05:13:39.712Z,98003.69
2022-10-08T05:16:08.326Z,98007.38
2022-10-08T05:18:36.412Z,98006.66
2022-10-08T05:21:10.961Z,98012.13
2022-10-08T05:23:38.668Z,98005.19
2022-10-08T05:26:35.945Z,98008.84
2022-10-08T05:29:10.880Z,98019.81
2022-10-08T05:31:37.737Z,98010.91
2022-10-08T05:34:04.452Z,98017.28
2022-10-08T05:36:32.503Z,98016.38
2022-10-08T05:39:01.307Z,98018.72
2022-10-08T05:41:30.156Z,98028.78
2022-10-08T05:43:58.237Z,98023.88
2022-10-08T05:46:26.889Z,98024.22
2022-10-08T05:48:57.661Z,98033.66
2022-10-08T05:51:24.783Z,98030.56
2022-10-08T05:53:52.951Z,98033.63
2022-10-08T05:56:21.926Z,98037.09
2022-10-08T05:58:49.846Z,98039.88
2022-10-08T06:01:28.172Z,98041.13
2022-10-08T06:03:57.648Z,98041.63
2022-10-08T06:06:25.206Z,98037.06
2022-10-08T06:08:58.626Z,98048.00
2022-10-08T06:11:29.548Z,98040.00
2022-10-08T06:13:57.673Z,98043.44
2022-10-08T06:16:25.322Z,98044.88
2022-10-08T06:18:52.390Z,98049.44
2022-10-08T06:21:21.817Z,98058.91
2022-10-08T06:23:54.316Z,98057.47
2022-10-08T06:26:22.256Z,98056.19
2022-10-08T06:28:49.795Z,98060.38
2022-10-08T06:31:17.148Z,98055.06
2022-10-08T06:33:43.854Z,98066.41
2022-10-08T06:36:14.581Z,98060.94
2022-10-08T06:38:41.246Z,98062.75
2022-10-08T06:41:08.526Z,98068.19
2022-10-08T06:43:35.208Z,98061.38
2022-10-08T06:46:05.996Z,98067.13
2022-10-08T06:48:33.371Z,98067.09
2022-10-08T06:51:01.469Z,98074.44
2022-10-08T06:53:28.646Z,98070.19
2022-10-08T06:55:59.769Z,98078.94
2022-10-08T06:58:27.182Z,98079.63
2022-10-08T07:01:11.229Z,98068.09
2022-10-08T07:03:38.114Z,98085.38
2022-10-08T07:06:10.570Z,98080.56
2022-10-08T07:08:37.154Z,98083.81
2022-10-08T07:11:12.450Z,98074.41
2022-10-08T07:13:40.036Z,98079.66
2022-10-08T07:16:09.577Z,98081.66
2022-10-08T07:18:38.993Z,98074.22
2022-10-08T07:21:06.940Z,98075.28
2022-10-08T07:23:33.975Z,98075.78
2022-10-08T07:26:18.025Z,98075.78
2022-10-08T07:28:59.678Z,98075.06
2022-10-08T07:31:31.595Z,98078.84
2022-10-08T07:33:59.753Z,98070.41
2022-10-08T07:36:27.716Z,98077.66
2022-10-08T07:38:59.231Z,98080.72
2022-10-08T07:41:27.013Z,98086.53
2022-10-08T07:43:55.194Z,98082.13
2022-10-08T07:46:22.302Z,98091.00
2022-10-08T07:48:48.920Z,98088.00
2022-10-08T07:51:18.003Z,98096.22
2022-10-08T07:53:45.178Z,98096.00
2022-10-08T07:56:14.637Z,98105.59
2022-10-08T07:58:41.712Z,98097.38
2022-10-08T08:01:12.232Z,98094.63
2022-10-08T08:03:38.769Z,98099.56
2022-10-08T08:06:10.908Z,98090.75
2022-10-08T08:08:39.244Z,98085.25
2022-10-08T08:11:07.838Z,98087.38
2022-10-08T08:13:37.479Z,98080.97
2022-10-08T08:16:07.211Z,98078.31
2022-10-08T08:18:36.835Z,98079.19
2022-10-08T08:21:06.338Z,98073.16
2022-10-08T08:23:37.874Z,98081.81
2022-10-08T08:26:07.232Z,98084.84
2022-10-08T08:28:34.206Z,98086.31
2022-10-08T08:31:28.687Z,98093.66
2022-10-08T08:33:58.494Z,98089.28
2022-10-08T08:36:33.817Z,98085.16
2022-10-08T08:39:01.323Z,98093.88
2022-10-08T08:42:06.618Z,98090.72
2022-10-08T08:44:37.805Z,98092.41
2022-10-08T08:47:28.954Z,98104.38
2022-10-08T08:50:00.963Z,98097.72
2022-10-08T08:52:34.112Z,98106.44
2022-10-08T08:55:01.290Z,98109.78
2022-10-08T08:57:42.214Z,98110.53
2022-10-08T09:00:18.124Z,98108.81
2022-10-08T09:02:49.709Z,98103.94
2022-10-08T09:05:19.007Z,98107.88
2022-10-08T09:07:53.886Z,98099.34
2022-10-08T09:10:36.811Z,98097.97
2022-10-08T09:13:03.946Z,98108.19
2022-10-08T09:15:36.727Z,98117.06
2022-10-08T09:18:04.590Z,98120.38
2022-10-08T09:20:32.244Z,98119.59
2022-10-08T09:23:00.688Z,98114.00
2022-10-08T09:25:32.853Z,98116.63
2022-10-08T09:28:01.636Z,98112.59
2022-10-08T09:30:38.967Z,98118.69
2022-10-08T09:33:25.290Z,98102.22
2022-10-08T09:35:54.852Z,98106.09
2022-10-08T09:38:30.781Z,98108.72
2022-10-08T09:41:06.362Z,98108.75
2022-10-08T09:43:34.942Z,98113.13
2022-10-08T09:46:11.705Z,98104.16
2022-10-08T09:48:39.611Z,98097.19
2022-10-08T09:51:14.226Z,98107.06
2022-10-08T09:53:47.890Z,98098.81
2022-10-08T09:56:15.602Z,98103.47
2022-10-08T09:58:52.972Z,98106.22
2022-10-08T10:01:20.037Z,98109.72
2022-10-08T10:04:06.561Z,98100.34
2022-10-08T10:06:37.281Z,98094.53
2022-10-08T10:09:40.662Z,98098.44
2022-10-08T10:12:32.338Z,98096.28
2022-10-08T10:15:14.483Z,98094.25
2022-10-08T10:17:55.033Z,98084.81
2022-10-08T10:20:29.157Z,98083.94
2022-10-08T10:23:01.647Z,98087.22
2022-10-08T10:26:06.615Z,98073.88
2022-10-08T10:28:57.286Z,98060.53
2022-10-08T10:31:45.548Z,98065.63
2022-10-08T10:34:21.666Z,98063.75
2022-10-08T10:36:52.683Z,98061.91
2022-10-08T10:40:00.154Z,98063.22
2022-10-08T10:42:38.342Z,98069.00
2022-10-08T10:45:13.760Z,98064.09
2022-10-08T10:47:40.803Z,98062.34
2022-10-08T10:50:14.510Z,98049.44
2022-10-08T10:53:26.482Z,98049.13
2022-10-08T10:56:17.851Z,98047.97
2022-10-08T10:59:25.926Z,98045.66
2022-10-08T11:02:09.166Z,98038.13
2022-10-08T11:04:50.923Z,98032.78
2022-10-08T11:07:32.838Z,98026.09
2022-10-08T11:10:38.233Z,98031.88
2022-10-08T11:13:42.349Z,98032.88
2022-10-08T11:16:49.454Z,98033.31
2022-10-08T11:19:55.603Z,98024.31
2022-10-08T11:22:45.153Z,98028.53
2022-10-08T11:26:23.351Z,98024.44
2022-10-08T11:29:31.461Z,98019.91
2022-10-08T11:31:58.867Z,98021.06
2022-10-08T11:34:32.000Z,98013.22
2022-10-08T11:37:40.054Z,98021.06
2022-10-08T11:40:47.082Z,98014.38
2022-10-08T11:43:24.842Z,98014.66
2022-10-08T11:46:31.511Z,98013.22
2022-10-08T11:49:24.103Z,98004.38
2022-10-08T11:51:52.353Z,98004.38
2022-10-08T11:54:31.656Z,97993.59
2022-10-08T11:58:07.167Z,97993.31
2022-10-08T12:00:53.321Z,97994.28
2022-10-08T12:03:24.874Z,97992.97
2022-10-08T12:05:54.400Z,97987.75
2022-10-08T12:09:16.063Z,97989.31
2022-10-08T12:11:51.047Z,97981.19
2022-10-08T12:14:27.241Z,97978.81
2022-10-08T12:16:57.211Z,97984.88
2022-10-08T12:19:43.011Z,97974.97
2022-10-08T12:22:44.542Z,97987.63
2022-10-08T12:25:34.904Z,97972.25
2022-10-08T12:28:47.825Z,97973.63
2022-10-08T12:31:30.246Z,97974.00
2022-10-08T12:34:22.789Z,97969.31
2022-10-08T12:37:16.679Z,97970.78
2022-10-08T12:39:45.684Z,97956.44
2022-10-08T12:42:25.799Z,97959.56
2022-10-08T12:45:20.432Z,97959.22
2022-10-08T12:47:58.557Z,97960.06
2022-10-08T12:50:40.160Z,97960.06
2022-10-08T12:53:08.473Z,97957.63
2022-10-08T12:55:44.462Z,97947.81
2022-10-08T12:58:17.859Z,97957.94
2022-10-08T13:00:50.000Z,97948.66
2022-10-08T13:03:18.204Z,97949.13
2022-10-08T13:05:47.999Z,97946.00
2022-10-08T13:08:36.031Z,97949.94
2022-10-08T13:11:14.679Z,97951.88
2022-10-08T13:13:43.039Z,97950.19
2022-10-08T13:16:21.382Z,97946.78
2022-10-08T13:18:53.808Z,97945.53
2022-10-08T13:21:32.551Z,97949.16
2022-10-08T13:24:00.583Z,97953.47
2022-10-08T13:26:44.911Z,97953.19
2022-10-08T13:29:37.912Z,97949.88
2022-10-08T13:32:21.855Z,97950.84
2022-10-08T13:34:51.958Z,97946.00
2022-10-08T13:37:35.193Z,97947.84
2022-10-08T13:40:25.215Z,97947.75
2022-10-08T13:42:54.522Z,97955.38
2022-10-08T13:45:26.210Z,97951.56
2022-10-08T13:47:53.684Z,97949.44
2022-10-08T13:50:21.485Z,97949.00
2022-10-08T13:52:54.413Z,97946.47
2022-10-08T13:55:26.816Z,97945.53
2022-10-08T13:57:57.821Z,97947.84
2022-10-08T14:00:24.476Z,97948.78
2022-10-08T14:02:51.769Z,97953.81
2022-10-08T14:05:22.730Z,97951.59
2022-10-08T14:07:54.056Z,97951.41
2022-10-08T14:10:20.962Z,97956.03
2022-10-08T14:12:47.920Z,97957.88
2022-10-08T14:15:16.279Z,97957.94
2022-10-08T14:17:43.235Z,97955.84
2022-10-08T14:20:13.276Z,97950.97
2022-10-08T14:22:39.857Z,97951.88
2022-10-08T14:25:14.628Z,97955.88
2022-10-08T14:27:41.323Z,97953.00
2022-10-08T14:30:13.085Z,97948.94
2022-10-08T14:32:59.642Z,97943.44
2022-10-08T14:35:29.744Z,97940.09
2022-10-08T14:37:56.379Z,97935.16
2022-10-08T14:40:23.270Z,97936.34
2022-10-08T14:42:50.408Z,97936.06
2022-10-08T14:45:17.336Z,97937.22
2022-10-08T14:47:44.179Z,97932.31
2022-10-08T14:50:10.774Z,97932.31
2022-10-08T14:52:44.649Z,97935.06
2022-10-08T14:55:12.204Z,97932.31
2022-10-08T14:57:38.926Z,97928.25
2022-10-08T15:00:06.474Z,97927.53
2022-10-08T15:02:34.461Z,97925.38
2022-10-08T15:05:02.035Z,97930.75
2022-10-08T15:07:31.567Z,97931.91
2022-10-08T15:09:59.006Z,97934.25
2022-10-08T15:12:25.751Z,97936.72
2022-10-08T15:14:52.353Z,97926.91
2022-10-08T15:17:18.940Z,97936.59
2022-10-08T15:19:45.489Z,97938.91
2022-10-08T15:22:12.767Z,97934.25
2022-10-08T15:24:39.397Z,97935.84
2022-10-08T15:27:05.953Z,97942.06
2022-10-08T15:29:32.736Z,97941.50
2022-10-08T15:31:59.358Z,97939.59
2022-10-08T15:34:25.939Z,97937.69
2022-10-08T15:36:55.582Z,97939.16
2022-10-08T15:39:22.849Z,97947.53
2022-10-08T15:41:51.633Z,97942.75
2022-10-08T15:44:26.538Z,97940.00
2022-10-08T15:47:07.349Z,97945.66
2022-10-08T15:49:39.204Z,97944.22
2022-10-08T15:52:10.042Z,97945.66
2022-10-08T15:54:41.009Z,97950.28
2022-10-08T15:57:09.221Z,97945.22
2022-10-08T15:59:36.141Z,97951.91
2022-10-08T16:02:10.670Z,97953.22
2022-10-08T16:04:39.891Z,97959.19
2022-10-08T16:07:10.097Z,97956.63
2022-10-08T16:09:36.773Z,97959.66
2022-10-08T16:12:03.583Z,97972.31
2022-10-08T16:14:30.391Z,97962.31
2022-10-08T16:16:57.377Z,97969.72
2022-10-08T16:19:26.657Z,97971.03
2022-10-08T16:21:55.585Z,97970.91
2022-10-08T16:24:22.586Z,97982.63
2022-10-08T16:26:49.269Z,97988.00
2022-10-08T16:29:17.777Z,97980.31
2022-10-08T16:31:45.704Z,97975.38
2022-10-08T16:34:21.269Z,97976.69
2022-10-08T16:36:49.137Z,97988.31
2022-10-08T16:39:19.091Z,97977.84
2022-10-08T16:41:46.613Z,97984.53
2022-10-08T16:44:18.418Z,97987.16
2022-10-08T16:46:50.178Z,97988.31
2022-10-08T16:49:26.249Z,97995.69
2022-10-08T16:51:55.876Z,97994.09
2022-10-08T16:54:23.048Z,98000.81
2022-10-08T16:56:49.738Z,98001.66
2022-10-08T16:59:19.656Z,98006.75
2022-10-08T17:01:49.196Z,98011.50
2022-10-08T17:04:16.581Z,98019.03
2022-10-08T17:06:44.074Z,98018.03
2022-10-08T17:09:11.602Z,98023.53
2022-10-08T17:11:38.570Z,98028.31
2022-10-08T17:14:07.584Z,98025.69
2022-10-08T17:16:35.838Z,98031.22
2022-10-08T17:19:03.561Z,98023.53
2022-10-08T17:21:31.553Z,98017.59
2022-10-08T17:23:59.255Z,98023.81
2022-10-08T17:26:28.003Z,98021.06
2022-10-08T17:28:55.550Z,98026.56
2022-10-08T17:31:26.402Z,98033.97
2022-10-08T17:33:53.455Z,98024.69
2022-10-08T17:36:26.437Z,98034.84
2022-10-08T17:38:55.532Z,98047.72
2022-10-08T17:41:24.994Z,98050.06
2022-10-08T17:43:52.963Z,98053.25
2022-10-08T17:46:22.358Z,98057.88
2022-10-08T17:48:49.813Z,98056.44
2022-10-08T17:51:22.099Z,98073.06
2022-10-08T17:53:53.633Z,98087.59
2022-10-08T17:56:21.175Z,98086.25
2022-10-08T17:58:48.025Z,98096.09
2022-10-08T18:01:17.184Z,98100.44
2022-10-08T18:03:49.154Z,98093.44
2022-10-08T18:06:15.963Z,98109.66
2022-10-08T18:08:42.545Z,98107.88
2022-10-08T18:11:13.566Z,98102.78
2022-10-08T18:13:41.018Z,98111.75
2022-10-08T18:16:13.439Z,98113.78
2022-10-08T18:18:41.637Z,98112.91
2022-10-08T18:21:10.549Z,98122.47
2022-10-08T18:23:37.426Z,98123.34
2022-10-08T18:26:28.437Z,98115.25
2022-10-08T18:28:57.420Z,98126.66
2022-10-08T18:31:26.325Z,98133.47
2022-10-08T18:33:57.953Z,98132.75
2022-10-08T18:36:27.044Z,98127.97
2022-10-08T18:38:58.957Z,98142.03
2022-10-08T18:41:28.221Z,98148.81
2022-10-08T18:43:55.556Z,98150.69
2022-10-08T18:46:23.453Z,98157.06
2022-10-08T18:48:50.176Z,98160.25
2022-10-08T18:51:22.604Z,98166.63
2022-10-08T18:53:49.824Z,98174.31
2022-10-08T18:56:21.904Z,98174.13
2022-10-08T18:58:50.614Z,98172.84
2022-10-08T19:01:23.179Z,98177.63
2022-10-08T19:03:52.070Z,98183.28
2022-10-08T19:06:20.920Z,98186.03
2022-10-08T19:08:48.734Z,98185.00
2022-10-08T19:11:21.760Z,98187.03
2022-10-08T19:13:49.480Z,98195.84
2022-10-08T19:16:16.434Z,98198.13
2022-10-08T19:18:44.965Z,98203.94
2022-10-08T19:21:13.279Z,98209.59
2022-10-08T19:23:40.474Z,98213.06
2022-10-08T19:26:07.157Z,98225.22
2022-10-08T19:28:37.122Z,98235.06
2022-10-08T19:31:27.251Z,98230.56
2022-10-08T19:34:05.452Z,98237.59
2022-10-08T19:36:35.356Z,98234.84
2022-10-08T19:39:13.063Z,98252.06
2022-10-08T19:41:40.426Z,98250.91
2022-10-08T19:44:07.265Z,98258.88
2022-10-08T19:46:34.370Z,98255.50
2022-10-08T19:49:03.591Z,98266.19
2022-10-08T19:51:31.383Z,98268.34
2022-10-08T19:53:59.318Z,98265.91
2022-10-08T19:56:26.834Z,98267.63
2022-10-08T19:58:54.248Z,98269.25
2022-10-08T20:01:26.512Z,98278.53
2022-10-08T20:03:57.310Z,98274.16
2022-10-08T20:06:26.314Z,98280.38
2022-10-08T20:08:54.754Z,98285.75
2022-10-08T20:11:22.129Z,98289.22
2022-10-08T20:13:50.082Z,98296.75
2022-10-08T20:16:19.744Z,98301.19
2022-10-08T20:18:59.295Z,98303.94
2022-10-08T20:21:27.538Z,98307.88
2022-10-08T20:23:54.518Z,98311.69
2022-10-08T20:26:26.713Z,98313.78
2022-10-08T20:28:56.941Z,98305.13
2022-10-08T20:31:33.114Z,98313.22
2022-10-08T20:34:21.312Z,98311.03
2022-10-08T20:36:48.765Z,98312.19
2022-10-08T20:39:17.010Z,98319.53
2022-10-08T20:41:44.100Z,98310.72
2022-10-08T20:44:10.945Z,98324.16
2022-10-08T20:46:38.767Z,98329.31
2022-10-08T20:49:06.190Z,98327.56
2022-10-08T20:51:33.689Z,98330.72
2022-10-08T20:54:06.206Z,98323.09
2022-10-08T20:56:39.277Z,98324.22
2022-10-08T20:59:07.565Z,98337.97
2022-10-08T21:01:37.689Z,98344.47
2022-10-08T21:04:05.607Z,98345.25
2022-10-08T21:06:45.462Z,98331.34
2022-10-08T21:09:13.442Z,98328.03
2022-10-08T21:11:40.148Z,98319.03
2022-10-08T21:14:07.849Z,98323.28
2022-10-08T21:16:37.727Z,98331.66
2022-10-08T21:19:07.152Z,98324.91
2022-10-08T21:21:34.536Z,98319.22
2022-10-08T21:24:01.549Z,98312.84
2022-10-08T21:26:33.252Z,98330.78
2022-10-08T21:29:02.189Z,98340.63
2022-10-08T21:31:30.477Z,98351.47
2022-10-08T21:33:58.958Z,98355.84
2022-10-08T21:36:30.891Z,98358.41
2022-10-08T21:38:58.685Z,98350.25
2022-10-08T21:41:28.440Z,98343.31
2022-10-08T21:43:59.224Z,98356.47
2022-10-08T21:46:31.407Z,98352.28
2022-10-08T21:49:01.029Z,98361.06
2022-10-08T21:51:29.175Z,98363.81
2022-10-08T21:53:57.591Z,98366.97
2022-10-08T21:56:30.384Z,98376.91
2022-10-08T21:58:59.398Z,98369.22
2022-10-08T22:01:41.458Z,98369.38
2022-10-08T22:04:11.161Z,98381.66
2022-10-08T22:06:43.549Z,98383.50
2022-10-08T22:09:12.065Z,98372.91
2022-10-08T22:11:39.390Z,98369.63
2022-10-08T22:14:06.741Z,98362.44
2022-10-08T22:16:33.738Z,98359.50
2022-10-08T22:19:00.550Z,98362.84
2022-10-08T22:21:27.346Z,98365.00
2022-10-08T22:23:54.359Z,98364.53
2022-10-08T22:26:24.166Z,98367.28
2022-10-08T22:28:51.053Z,98374.63
2022-10-08T22:31:19.284Z,98367.81
2022-10-08T22:33:46.676Z,98367.66
2022-10-08T22:36:30.630Z,98374.63
2022-10-08T22:38:58.500Z,98379.22
2022-10-08T22:41:27.460Z,98373.72
2022-10-08T22:43:54.518Z,98377.22
2022-10-08T22:46:23.951Z,98390.19
2022-10-08T22:48:50.995Z,98376.47
2022-10-08T22:51:21.823Z,98377.09
2022-10-08T22:53:49.144Z,98385.66
2022-10-08T22:56:20.011Z,98380.00
2022-10-08T22:58:47.088Z,98378.53
2022-10-08T23:01:16.743Z,98380.22
2022-10-08T23:03:43.426Z,98380.22
2022-10-08T23:06:24.568Z,98383.72
2022-10-08T23:08:59.275Z,98377.69
2022-10-08T23:11:26.933Z,98382.78
2022-10-08T23:13:55.688Z,98389.56
2022-10-08T23:16:23.722Z,98384.66
2022-10-08T23:18:59.214Z,98389.00
2022-10-08T23:21:26.350Z,98398.72
2022-10-08T23:23:54.063Z,98405.13
2022-10-08T23:26:21.413Z,98404.41
2022-10-08T23:28:56.735Z,98400.03
2022-10-08T23:31:28.911Z,98407.72
2022-10-08T23:33:56.013Z,98413.03
2022-10-08T23:36:28.796Z,98411.75
2022-10-08T23:38:56.547Z,98413.28
2022-10-08T23:41:23.674Z,98412.94
2022-10-08T23:43:51.679Z,98410.91
2022-10-08T23:46:20.953Z,98420.03
2022-10-08T23:48:48.539Z,98425.84
2022-10-08T23:51:16.365Z,98411.59
2022-10-08T23:53:44.088Z,98422.91
2022-10-08T23:56:11.827Z,98422.69
2022-10-08T23:58:38.411Z,98428.91
